sensor_id;sensor_type;location;lat;lon;timestamp;pressure;altitude;pressure_sealevel;temperature;humidity
62420;BME280;48460;51.616;5.426;2023-02-14T02:35:29;103253.84;;;0.71;100.00
62420;BME280;48460;51.616;5.426;2023-02-14T02:50:37;103260.81;;;0.72;100.00
62420;BME280;48460;51.616;5.426;2023-02-14T02:54:01;103262.66;;;0.77;100.00
62420;BME280;48460;51.616;5.426;2023-02-14T02:56:56;103249.53;;;0.71;100.00
62420;BME280;48460;51.616;5.426;2023-02-14T02:59:45;103264.38;;;0.77;100.00
62420;BME280;48460;51.616;5.426;2023-02-14T03:02:24;103263.41;;;0.73;100.00
62420;BME280;48460;51.616;5.426;2023-02-14T03:07:57;103256.28;;;0.64;100.00
62420;BME280;48460;51.616;5.426;2023-02-14T03:10:37;103260.44;;;0.59;100.00
62420;BME280;48460;51.616;5.426;2023-02-14T03:22:27;103272.22;;;0.80;100.00
62420;BME280;48460;51.616;5.426;2023-02-14T03:34:50;103274.75;;;0.77;100.00
62420;BME280;48460;51.616;5.426;2023-02-14T03:38:20;103259.16;;;0.75;100.00
62420;BME280;48460;51.616;5.426;2023-02-14T03:41:23;103269.44;;;0.72;100.00
62420;BME280;48460;51.616;5.426;2023-02-14T03:44:16;103267.66;;;0.71;100.00
62420;BME280;48460;51.616;5.426;2023-02-14T03:47:23;103261.59;;;0.69;100.00
62420;BME280;48460;51.616;5.426;2023-02-14T06:49:53;103258.75;;;-0.26;100.00
62420;BME280;48460;51.616;5.426;2023-02-14T06:52:40;103251.72;;;-0.30;100.00
62420;BME280;48460;51.616;5.426;2023-02-14T06:55:08;103256.00;;;-0.31;100.00
62420;BME280;48460;51.616;5.426;2023-02-14T07:07:24;103258.50;;;-0.07;100.00
62420;BME280;48460;51.616;5.426;2023-02-14T07:16:34;103254.91;;;-0.12;100.00
62420;BME280;48460;51.616;5.426;2023-02-14T07:19:46;103255.78;;;-0.11;100.00
62420;BME280;48460;51.616;5.426;2023-02-14T07:22:51;103255.78;;;-0.11;100.00
62420;BME280;48460;51.616;5.426;2023-02-14T07:45:51;103258.84;;;0.33;100.00
62420;BME280;48460;51.616;5.426;2023-02-14T07:48:28;103259.97;;;0.42;100.00
62420;BME280;48460;51.616;5.426;2023-02-14T07:51:01;103260.19;;;0.50;100.00
62420;BME280;48460;51.616;5.426;2023-02-14T07:53:44;103268.25;;;0.61;100.00
62420;BME280;48460;51.616;5.426;2023-02-14T08:03:25;103256.22;;;0.93;100.00
62420;BME280;48460;51.616;5.426;2023-02-14T08:48:24;103250.25;;;2.88;100.00
62420;BME280;48460;51.616;5.426;2023-02-14T08:50:51;103251.84;;;3.30;100.00
62420;BME280;48460;51.616;5.426;2023-02-14T08:53:17;103243.94;;;3.77;100.00
62420;BME280;48460;51.616;5.426;2023-02-14T08:55:44;103254.25;;;4.28;100.00
62420;BME280;48460;51.616;5.426;2023-02-14T08:58:10;103260.72;;;4.63;100.00
62420;BME280;48460;51.616;5.426;2023-02-14T09:00:47;103248.00;;;4.89;100.00
62420;BME280;48460;51.616;5.426;2023-02-14T09:03:21;103241.34;;;5.21;100.00
62420;BME280;48460;51.616;5.426;2023-02-14T09:06:02;103250.31;;;5.56;100.00
62420;BME280;48460;51.616;5.426;2023-02-14T09:08:27;103257.44;;;5.75;100.00
62420;BME280;48460;51.616;5.426;2023-02-14T09:11:11;103242.69;;;5.80;100.00
62420;BME280;48460;51.616;5.426;2023-02-14T09:13:38;103249.72;;;5.92;100.00
62420;BME280;48460;51.616;5.426;2023-02-14T09:16:12;103251.66;;;6.19;100.00
62420;BME280;48460;51.616;5.426;2023-02-14T09:18:45;103257.91;;;6.66;100.00
62420;BME280;48460;51.616;5.426;2023-02-14T09:24:16;103251.06;;;7.46;100.00
62420;BME280;48460;51.616;5.426;2023-02-14T09:26:47;103239.72;;;7.71;100.00
62420;BME280;48460;51.616;5.426;2023-02-14T09:29:22;103237.09;;;7.78;100.00
62420;BME280;48460;51.616;5.426;2023-02-14T09:34:37;103243.19;;;7.78;100.00
62420;BME280;48460;51.616;5.426;2023-02-14T09:37:24;103251.06;;;7.80;100.00
62420;BME280;48460;51.616;5.426;2023-02-14T09:40:21;103250.16;;;7.73;100.00
62420;BME280;48460;51.616;5.426;2023-02-14T09:48:50;103231.84;;;7.85;100.00
62420;BME280;48460;51.616;5.426;2023-02-14T11:50:53;103151.03;;;17.86;49.55
62420;BME280;48460;51.616;5.426;2023-02-14T11:53:50;103141.75;;;18.13;48.16
62420;BME280;48460;51.616;5.426;2023-02-14T12:05:32;103126.94;;;19.83;46.74
62420;BME280;48460;51.616;5.426;2023-02-14T12:08:13;103133.00;;;20.18;41.96
62420;BME280;48460;51.616;5.426;2023-02-14T12:32:56;103097.72;;;20.89;38.03
62420;BME280;48460;51.616;5.426;2023-02-14T12:39:07;103089.44;;;21.08;40.18
62420;BME280;48460;51.616;5.426;2023-02-14T12:47:33;103077.38;;;22.01;35.24
62420;BME280;48460;51.616;5.426;2023-02-14T13:33:42;103022.00;;;21.46;36.59
62420;BME280;48460;51.616;5.426;2023-02-14T13:51:22;102994.19;;;20.91;37.00
62420;BME280;48460;51.616;5.426;2023-02-14T14:03:11;102993.13;;;22.05;37.08
62420;BME280;48460;51.616;5.426;2023-02-14T14:09:09;102988.63;;;21.52;36.76
62420;BME280;48460;51.616;5.426;2023-02-14T14:16:59;102973.00;;;22.52;36.06
62420;BME280;48460;51.616;5.426;2023-02-14T14:22:06;102968.41;;;22.15;35.13
62420;BME280;48460;51.616;5.426;2023-02-14T14:24:34;102966.22;;;22.34;34.82
62420;BME280;48460;51.616;5.426;2023-02-14T14:27:17;102957.88;;;22.51;36.06
62420;BME280;48460;51.616;5.426;2023-02-14T14:29:56;102972.25;;;22.11;34.79
62420;BME280;48460;51.616;5.426;2023-02-14T14:32:47;102968.16;;;22.45;35.72
62420;BME280;48460;51.616;5.426;2023-02-14T14:35:23;102956.03;;;22.26;36.04
62420;BME280;48460;51.616;5.426;2023-02-14T14:37:52;102968.38;;;22.42;34.29
62420;BME280;48460;51.616;5.426;2023-02-14T14:40:35;102958.19;;;22.72;35.77
62420;BME280;48460;51.616;5.426;2023-02-14T14:43:13;102960.34;;;22.42;34.76
62420;BME280;48460;51.616;5.426;2023-02-14T14:45:45;102962.81;;;22.05;34.37
62420;BME280;48460;51.616;5.426;2023-02-14T14:48:38;102959.66;;;21.71;35.45
62420;BME280;48460;51.616;5.426;2023-02-14T14:51:20;102953.31;;;21.59;36.54
62420;BME280;48460;51.616;5.426;2023-02-14T14:53:59;102955.06;;;21.73;36.60
62420;BME280;48460;51.616;5.426;2023-02-14T14:56:45;102951.22;;;22.04;35.28
62420;BME280;48460;51.616;5.426;2023-02-14T14:59:34;102948.97;;;21.98;36.20
62420;BME280;48460;51.616;5.426;2023-02-14T15:02:18;102951.72;;;21.97;35.33
62420;BME280;48460;51.616;5.426;2023-02-14T15:04:51;102948.75;;;22.01;35.32
62420;BME280;48460;51.616;5.426;2023-02-14T15:07:32;102949.81;;;21.30;35.35
62420;BME280;48460;51.616;5.426;2023-02-14T15:10:19;102945.84;;;20.94;36.12
62420;BME280;48460;51.616;5.426;2023-02-14T15:12:49;102943.25;;;20.93;37.20
62420;BME280;48460;51.616;5.426;2023-02-14T15:47:38;102943.97;;;20.52;39.20
62420;BME280;48460;51.616;5.426;2023-02-14T16:49:05;102908.63;;;12.88;64.82
62420;BME280;48460;51.616;5.426;2023-02-14T16:55:21;102910.19;;;12.64;65.28
62420;BME280;48460;51.616;5.426;2023-02-14T16:58:10;102922.97;;;12.47;66.75
62420;BME280;48460;51.616;5.426;2023-02-14T17:04:01;102918.50;;;12.15;67.47
62420;BME280;48460;51.616;5.426;2023-02-14T17:09:26;102909.69;;;11.78;70.23
62420;BME280;48460;51.616;5.426;2023-02-14T17:12:18;102916.13;;;11.67;70.75
62420;BME280;48460;51.616;5.426;2023-02-14T17:14:53;102911.97;;;11.56;71.62
62420;BME280;48460;51.616;5.426;2023-02-14T17:17:26;102910.59;;;11.40;72.39
62420;BME280;48460;51.616;5.426;2023-02-14T17:22:33;102920.75;;;11.16;72.78
62420;BME280;48460;51.616;5.426;2023-02-14T17:25:17;102920.91;;;11.09;72.77
62420;BME280;48460;51.616;5.426;2023-02-14T17:33:11;102929.06;;;10.50;76.29
62420;BME280;48460;51.616;5.426;2023-02-14T17:35:47;102925.59;;;10.46;75.38
62420;BME280;48460;51.616;5.426;2023-02-14T17:40:54;102933.59;;;10.40;75.51
62420;BME280;48460;51.616;5.426;2023-02-14T17:43:35;102918.91;;;10.30;75.49
62420;BME280;48460;51.616;5.426;2023-02-14T17:49:00;102923.44;;;10.20;76.23
62420;BME280;48460;51.616;5.426;2023-02-14T17:51:29;102919.19;;;10.12;76.90
62420;BME280;48460;51.616;5.426;2023-02-14T17:53:54;102920.97;;;10.08;77.00
62420;BME280;48460;51.616;5.426;2023-02-14T17:56:24;102931.59;;;10.03;76.72
62420;BME280;48460;51.616;5.426;2023-02-14T17:58:51;102921.16;;;9.97;78.29
62420;BME280;48460;51.616;5.426;2023-02-14T18:01:32;102929.94;;;9.96;78.11
62420;BME280;48460;51.616;5.426;2023-02-14T18:04:00;102928.34;;;9.88;77.60
62420;BME280;48460;51.616;5.426;2023-02-14T18:06:34;102939.84;;;9.79;77.23
62420;BME280;48460;51.616;5.426;2023-02-14T18:09:05;102925.13;;;9.67;78.34
62420;BME280;48460;51.616;5.426;2023-02-14T18:11:31;102925.28;;;9.56;77.37
62420;BME280;48460;51.616;5.426;2023-02-14T18:14:00;102916.75;;;9.41;78.56
62420;BME280;48460;51.616;5.426;2023-02-14T18:16:30;102919.47;;;9.33;79.41
62420;BME280;48460;51.616;5.426;2023-02-14T18:19:09;102921.44;;;9.16;79.67
62420;BME280;48460;51.616;5.426;2023-02-14T18:21:36;102910.31;;;8.97;80.44
62420;BME280;48460;51.616;5.426;2023-02-14T18:24:04;102911.31;;;8.86;81.05
62420;BME280;48460;51.616;5.426;2023-02-14T18:26:31;102906.22;;;8.71;81.87
62420;BME280;48460;51.616;5.426;2023-02-14T18:28:57;102918.53;;;8.66;82.95
62420;BME280;48460;51.616;5.426;2023-02-14T18:31:23;102916.00;;;8.60;83.42
62420;BME280;48460;51.616;5.426;2023-02-14T18:33:59;102919.53;;;8.53;83.59
62420;BME280;48460;51.616;5.426;2023-02-14T18:36:31;102921.34;;;8.46;84.55
62420;BME280;48460;51.616;5.426;2023-02-14T18:39:27;102924.88;;;8.43;85.26
62420;BME280;48460;51.616;5.426;2023-02-14T18:41:54;102913.59;;;8.34;83.91
62420;BME280;48460;51.616;5.426;2023-02-14T18:44:27;102924.94;;;8.33;85.08
62420;BME280;48460;51.616;5.426;2023-02-14T18:46:53;102910.19;;;8.22;84.51
62420;BME280;48460;51.616;5.426;2023-02-14T18:49:19;102905.94;;;8.09;85.06
62420;BME280;48460;51.616;5.426;2023-02-14T18:51:45;102906.03;;;7.95;85.66
62420;BME280;48460;51.616;5.426;2023-02-14T18:54:23;102909.66;;;7.78;86.26
62420;BME280;48460;51.616;5.426;2023-02-14T18:56:55;102907.06;;;7.73;87.29
62420;BME280;48460;51.616;5.426;2023-02-14T18:59:52;102901.00;;;7.68;86.96
62420;BME280;48460;51.616;5.426;2023-02-14T19:02:32;102898.47;;;7.59;87.69
62420;BME280;48460;51.616;5.426;2023-02-14T19:08:00;102905.50;;;7.47;88.89
62420;BME280;48460;51.616;5.426;2023-02-14T19:10:46;102885.44;;;7.45;88.86
62420;BME280;48460;51.616;5.426;2023-02-14T19:13:33;102885.38;;;7.54;88.95
62420;BME280;48460;51.616;5.426;2023-02-14T19:16:13;102878.50;;;7.35;89.25
62420;BME280;48460;51.616;5.426;2023-02-14T19:18:41;102880.31;;;7.26;89.31
62420;BME280;48460;51.616;5.426;2023-02-14T19:21:24;102885.50;;;7.31;90.50
62420;BME280;48460;51.616;5.426;2023-02-14T19:23:54;102876.78;;;7.34;91.55
62420;BME280;48460;51.616;5.426;2023-02-14T19:26:32;102863.75;;;7.29;92.08
62420;BME280;48460;51.616;5.426;2023-02-14T19:29:04;102873.28;;;7.36;92.47
62420;BME280;48460;51.616;5.426;2023-02-14T19:31:32;102874.09;;;7.44;86.76
62420;BME280;48460;51.616;5.426;2023-02-14T19:34:06;102857.59;;;7.31;92.10
62420;BME280;48460;51.616;5.426;2023-02-14T19:36:42;102861.13;;;7.29;92.29
62420;BME280;48460;51.616;5.426;2023-02-14T19:39:18;102857.66;;;7.19;92.77
62420;BME280;48460;51.616;5.426;2023-02-14T19:41:57;102862.06;;;7.13;92.45
62420;BME280;48460;51.616;5.426;2023-02-14T19:44:30;102872.56;;;7.02;91.15
62420;BME280;48460;51.616;5.426;2023-02-14T19:47:01;102863.97;;;6.77;91.53
62420;BME280;48460;51.616;5.426;2023-02-14T19:49:37;102865.78;;;6.58;92.25
62420;BME280;48460;51.616;5.426;2023-02-14T19:52:15;102861.44;;;6.42;92.88
62420;BME280;48460;51.616;5.426;2023-02-14T19:54:42;102851.91;;;6.24;93.95
62420;BME280;48460;51.616;5.426;2023-02-14T20:00:05;102860.63;;;6.09;94.13
62420;BME280;48460;51.616;5.426;2023-02-14T20:02:34;102852.81;;;6.01;94.58
62420;BME280;48460;51.616;5.426;2023-02-14T20:05:10;102852.78;;;6.06;95.81
62420;BME280;48460;51.616;5.426;2023-02-14T20:07:45;102859.75;;;6.08;95.57
62420;BME280;48460;51.616;5.426;2023-02-14T20:10:25;102856.28;;;6.05;95.17
62420;BME280;48460;51.616;5.426;2023-02-14T20:12:55;102856.28;;;5.97;95.75
62420;BME280;48460;51.616;5.426;2023-02-14T20:15:21;102848.44;;;5.92;95.75
62420;BME280;48460;51.616;5.426;2023-02-14T20:21:16;102847.56;;;5.93;94.87
62420;BME280;48460;51.616;5.426;2023-02-14T20:23:59;102851.88;;;5.88;96.75
62420;BME280;48460;51.616;5.426;2023-02-14T20:26:57;102840.56;;;5.91;95.21
62420;BME280;48460;51.616;5.426;2023-02-14T20:29:29;102847.53;;;5.87;95.39
62420;BME280;48460;51.616;5.426;2023-02-14T20:32:02;102839.69;;;5.77;95.55
62420;BME280;48460;51.616;5.426;2023-02-14T20:34:40;102837.09;;;5.69;96.41
62420;BME280;48460;51.616;5.426;2023-02-14T20:37:16;102829.25;;;5.61;97.04
62420;BME280;48460;51.616;5.426;2023-02-14T20:39:44;102831.88;;;5.55;98.18
62420;BME280;48460;51.616;5.426;2023-02-14T20:42:19;102828.38;;;5.50;99.54
62420;BME280;48460;51.616;5.426;2023-02-14T20:44:58;102831.88;;;5.41;99.63
62420;BME280;48460;51.616;5.426;2023-02-14T20:47:32;102826.63;;;5.46;99.81
62420;BME280;48460;51.616;5.426;2023-02-14T20:50:01;102825.78;;;5.39;99.24
62420;BME280;48460;51.616;5.426;2023-02-14T20:52:38;102815.31;;;5.50;100.00
62420;BME280;48460;51.616;5.426;2023-02-14T20:55:07;102812.72;;;5.41;99.66
62420;BME280;48460;51.616;5.426;2023-02-14T20:57:32;102817.94;;;5.39;99.80
62420;BME280;48460;51.616;5.426;2023-02-14T21:00:00;102807.50;;;5.42;99.20
62420;BME280;48460;51.616;5.426;2023-02-14T21:02:40;102810.09;;;5.47;98.77
62420;BME280;48460;51.616;5.426;2023-02-14T21:05:09;102817.09;;;5.48;97.50
62420;BME280;48460;51.616;5.426;2023-02-14T21:07:36;102808.38;;;5.37;97.38
62420;BME280;48460;51.616;5.426;2023-02-14T21:10:03;102815.28;;;5.25;97.33
62420;BME280;48460;51.616;5.426;2023-02-14T21:12:34;102797.88;;;5.14;97.65
62420;BME280;48460;51.616;5.426;2023-02-14T21:15:04;102812.72;;;5.30;94.90
62420;BME280;48460;51.616;5.426;2023-02-14T21:17:31;102814.41;;;5.20;97.46
62420;BME280;48460;51.616;5.426;2023-02-14T21:19:58;102818.75;;;5.09;96.72
62420;BME280;48460;51.616;5.426;2023-02-14T21:22:23;102807.41;;;4.98;98.13
62420;BME280;48460;51.616;5.426;2023-02-14T21:24:50;102803.91;;;4.88;98.15
62420;BME280;48460;51.616;5.426;2023-02-14T21:27:23;102796.91;;;4.78;97.89
62420;BME280;48460;51.616;5.426;2023-02-14T21:29:59;102819.47;;;4.73;98.89
62420;BME280;48460;51.616;5.426;2023-02-14T21:32:28;102805.50;;;4.54;98.73
62420;BME280;48460;51.616;5.426;2023-02-14T21:34:57;102796.78;;;4.52;100.00
62420;BME280;48460;51.616;5.426;2023-02-14T21:37:22;102801.16;;;4.54;100.00
62420;BME280;48460;51.616;5.426;2023-02-14T21:39:53;102795.09;;;4.54;100.00
62420;BME280;48460;51.616;5.426;2023-02-14T21:42:21;102788.97;;;4.47;100.00
62420;BME280;48460;51.616;5.426;2023-02-14T21:44:57;102789.84;;;4.43;100.00
62420;BME280;48460;51.616;5.426;2023-02-14T21:47:42;102788.94;;;4.35;100.00
62420;BME280;48460;51.616;5.426;2023-02-14T21:50:36;102785.41;;;4.30;100.00
62420;BME280;48460;51.616;5.426;2023-02-14T21:53:03;102778.41;;;4.21;100.00
62420;BME280;48460;51.616;5.426;2023-02-14T21:55:34;102779.25;;;4.16;100.00
62420;BME280;48460;51.616;5.426;2023-02-14T21:58:03;102781.84;;;4.11;100.00
62420;BME280;48460;51.616;5.426;2023-02-14T22:00:35;102764.41;;;4.01;100.00
62420;BME280;48460;51.616;5.426;2023-02-14T22:03:02;102773.97;;;3.99;100.00
62420;BME280;48460;51.616;5.426;2023-02-14T22:05:33;102760.03;;;3.94;100.00
62420;BME280;48460;51.616;5.426;2023-02-14T22:08:12;102768.75;;;3.99;100.00
62420;BME280;48460;51.616;5.426;2023-02-14T22:10:45;102760.06;;;4.00;100.00
62420;BME280;48460;51.616;5.426;2023-02-14T22:13:22;102768.75;;;4.03;100.00
62420;BME280;48460;51.616;5.426;2023-02-14T22:15:49;102780.94;;;4.07;100.00
62420;BME280;48460;51.616;5.426;2023-02-14T22:18:20;102771.38;;;4.02;100.00
62420;BME280;48460;51.616;5.426;2023-02-14T22:20:48;102779.19;;;4.03;100.00
62420;BME280;48460;51.616;5.426;2023-02-14T22:23:17;102767.88;;;3.97;100.00
62420;BME280;48460;51.616;5.426;2023-02-14T22:25:44;102764.38;;;3.95;100.00
62420;BME280;48460;51.616;5.426;2023-02-14T22:28:17;102762.63;;;3.94;100.00
62420;BME280;48460;51.616;5.426;2023-02-14T22:31:01;102766.06;;;3.88;100.00
62420;BME280;48460;51.616;5.426;2023-02-14T22:33:31;102751.25;;;3.76;100.00
62420;BME280;48460;51.616;5.426;2023-02-14T22:35:58;102762.47;;;3.71;100.00
62420;BME280;48460;51.616;5.426;2023-02-14T22:38:28;102762.44;;;3.64;100.00
62420;BME280;48460;51.616;5.426;2023-02-14T22:41:06;102769.31;;;3.58;100.00
62420;BME280;48460;51.616;5.426;2023-02-14T22:43:34;102769.22;;;3.47;100.00
62420;BME280;48460;51.616;5.426;2023-02-14T22:46:07;102762.22;;;3.41;100.00
62420;BME280;48460;51.616;5.426;2023-02-14T22:48:38;102750.00;;;3.31;100.00
62420;BME280;48460;51.616;5.426;2023-02-14T22:54:05;102744.75;;;3.27;100.00
62420;BME280;48460;51.616;5.426;2023-02-14T22:56:36;102754.34;;;3.31;100.00
62420;BME280;48460;51.616;5.426;2023-02-14T22:59:24;102751.69;;;3.26;100.00
62420;BME280;48460;51.616;5.426;2023-02-14T23:01:59;102738.66;;;3.18;100.00
62420;BME280;48460;51.616;5.426;2023-02-14T23:04:29;102753.34;;;3.18;100.00
62420;BME280;48460;51.616;5.426;2023-02-14T23:06:59;102744.63;;;3.10;100.00
62420;BME280;48460;51.616;5.426;2023-02-14T23:09:31;102747.19;;;3.08;100.00
62420;BME280;48460;51.616;5.426;2023-02-14T23:12:01;102748.00;;;3.03;100.00
62420;BME280;48460;51.616;5.426;2023-02-14T23:14:46;102745.38;;;2.98;100.00
62420;BME280;48460;51.616;5.426;2023-02-14T23:17:34;102752.31;;;2.97;100.00
62420;BME280;48460;51.616;5.426;2023-02-14T23:20:18;102764.47;;;3.02;100.00
62420;BME280;48460;51.616;5.426;2023-02-14T23:23:04;102766.94;;;2.89;100.00
62420;BME280;48460;51.616;5.426;2023-02-14T23:25:31;102766.69;;;2.69;100.00
62420;BME280;48460;51.616;5.426;2023-02-14T23:27:58;102761.38;;;2.57;100.00
62420;BME280;48460;51.616;5.426;2023-02-14T23:30:24;102778.66;;;2.54;100.00
62420;BME280;48460;51.616;5.426;2023-02-14T23:32:51;102769.91;;;2.47;100.00
62420;BME280;48460;51.616;5.426;2023-02-14T23:35:22;102771.56;;;2.42;100.00
62420;BME280;48460;51.616;5.426;2023-02-14T23:37:57;102772.44;;;2.42;100.00
62420;BME280;48460;51.616;5.426;2023-02-14T23:40:28;102772.44;;;2.42;100.00
62420;BME280;48460;51.616;5.426;2023-02-14T23:43:22;102767.25;;;2.42;100.00
62420;BME280;48460;51.616;5.426;2023-02-14T23:45:50;102766.34;;;2.39;100.00
62420;BME280;48460;51.616;5.426;2023-02-14T23:48:17;102758.59;;;2.42;100.00
62420;BME280;48460;51.616;5.426;2023-02-14T23:50:48;102757.72;;;2.43;100.00
62420;BME280;48460;51.616;5.426;2023-02-14T23:53:14;102760.38;;;2.47;100.00
62420;BME280;48460;51.616;5.426;2023-02-14T23:55:42;102756.94;;;2.48;100.00
62420;BME280;48460;51.616;5.426;2023-02-14T23:58:24;102755.25;;;2.52;100.00
